createdAt,value
2023-01-28T00:04:03.093Z,12.43
2023-01-28T00:06:38.095Z,12.40
2023-01-28T00:09:12.241Z,11.22
2023-01-28T00:11:47.581Z,11.48
2023-01-28T00:14:22.235Z,14.03
2023-01-28T00:16:56.831Z,13.20
2023-01-28T00:22:04.700Z,13.35
2023-01-28T00:24:38.598Z,14.75
2023-01-28T00:29:45.531Z,11.73
2023-01-28T00:32:19.286Z,12.90
2023-01-28T00:37:26.120Z,12.65
2023-01-28T00:40:00.365Z,12.28
2023-01-28T00:42:35.630Z,10.45
2023-01-28T00:45:10.549Z,14.15
2023-01-28T00:47:45.549Z,12.63
2023-01-28T00:50:20.633Z,15.35
2023-01-28T00:52:54.979Z,19.70
2023-01-28T00:55:28.722Z,18.07
2023-01-28T01:00:36.798Z,13.85
2023-01-28T01:03:10.936Z,14.53
2023-01-28T01:08:18.243Z,13.08
2023-01-28T01:10:51.967Z,15.18
2023-01-28T01:13:25.883Z,15.48
2023-01-28T01:16:12.308Z,15.45
2023-01-28T01:18:46.320Z,16.20
2023-01-28T01:21:23.722Z,18.10
2023-01-28T01:23:58.147Z,15.88
2023-01-28T01:26:32.111Z,21.02
2023-01-28T01:29:05.814Z,17.82
2023-01-28T01:31:41.167Z,17.12
2023-01-28T01:34:15.139Z,15.20
2023-01-28T01:39:21.793Z,16.97
2023-01-28T01:41:55.566Z,14.10
2023-01-28T01:44:59.961Z,14.20
2023-01-28T01:47:58.766Z,13.50
2023-01-28T01:50:42.945Z,14.70
2023-01-28T01:53:19.439Z,12.95
2023-01-28T01:55:57.268Z,13.53
2023-01-28T01:58:34.890Z,13.68
2023-01-28T02:01:09.840Z,13.90
2023-01-28T02:03:54.482Z,12.82
2023-01-28T02:06:28.792Z,12.88
2023-01-28T02:09:03.795Z,12.47
2023-01-28T02:11:39.606Z,12.03
2023-01-28T02:14:22.391Z,15.40
2023-01-28T02:16:49.191Z,12.63
2023-01-28T02:19:25.273Z,12.73
2023-01-28T02:22:30.720Z,11.63
2023-01-28T02:25:36.594Z,12.47
2023-01-28T02:28:40.492Z,12.13
2023-01-28T02:31:21.211Z,12.90
2023-01-28T02:34:02.552Z,13.03
2023-01-28T02:36:54.634Z,11.73
2023-01-28T02:39:33.959Z,11.97
2023-01-28T02:42:18.409Z,11.50
2023-01-28T02:44:52.330Z,10.85
2023-01-28T02:47:45.202Z,12.70
2023-01-28T02:50:20.581Z,12.03
2023-01-28T02:53:44.385Z,12.80
2023-01-28T02:56:25.081Z,12.98
2023-01-28T02:59:14.232Z,13.60
2023-01-28T03:01:48.894Z,13.28
2023-01-28T03:04:51.745Z,14.23
2023-01-28T03:07:28.801Z,15.75
2023-01-28T03:10:06.714Z,19.17
2023-01-28T03:13:01.049Z,17.23
2023-01-28T03:16:02.750Z,18.92
2023-01-28T03:19:09.906Z,20.68
2023-01-28T03:22:03.030Z,20.92
2023-01-28T03:24:59.911Z,17.82
2023-01-28T03:28:05.828Z,16.65
2023-01-28T03:31:07.334Z,14.68
2023-01-28T03:34:02.642Z,15.48
2023-01-28T03:36:52.067Z,16.37
2023-01-28T03:39:31.909Z,17.65
2023-01-28T03:42:13.881Z,18.77
2023-01-28T03:44:52.903Z,17.10
2023-01-28T03:47:34.396Z,17.20
2023-01-28T03:50:11.591Z,16.35
2023-01-28T03:52:58.243Z,16.05
2023-01-28T03:55:33.990Z,15.72
2023-01-28T03:58:08.477Z,16.40
2023-01-28T04:03:20.715Z,17.27
2023-01-28T04:06:06.536Z,17.32
2023-01-28T04:08:53.298Z,17.05
2023-01-28T04:11:40.864Z,16.15
2023-01-28T04:14:16.395Z,25.90
2023-01-28T04:16:52.574Z,15.88
2023-01-28T04:19:28.335Z,16.82
2023-01-28T04:22:02.644Z,15.88
2023-01-28T04:24:36.708Z,16.25
2023-01-28T04:27:11.204Z,15.93
2023-01-28T04:29:45.335Z,16.02
2023-01-28T04:32:30.566Z,15.88
2023-01-28T04:35:09.441Z,15.20
2023-01-28T04:37:54.105Z,16.97
2023-01-28T04:40:46.586Z,15.93
2023-01-28T04:43:22.775Z,17.25
2023-01-28T04:45:59.099Z,18.90
2023-01-28T04:48:37.558Z,16.87
2023-01-28T04:51:28.683Z,16.85
2023-01-28T04:54:20.638Z,16.75
2023-01-28T04:56:56.580Z,14.43
2023-01-28T04:59:30.741Z,15.95
2023-01-28T05:02:05.495Z,20.75
2023-01-28T05:04:39.381Z,27.55
2023-01-28T05:07:14.593Z,21.23
2023-01-28T05:09:48.900Z,18.23
2023-01-28T05:12:23.882Z,14.23
2023-01-28T05:14:58.054Z,14.68
2023-01-28T05:17:32.730Z,17.32
2023-01-28T05:20:07.665Z,17.15
2023-01-28T05:22:42.511Z,13.55
2023-01-28T05:25:18.373Z,14.98
2023-01-28T05:27:55.776Z,17.20
2023-01-28T05:30:29.864Z,16.50
2023-01-28T05:33:04.173Z,16.80
2023-01-28T05:35:38.426Z,16.85
2023-01-28T05:38:14.933Z,16.95
2023-01-28T05:40:49.859Z,16.85
2023-01-28T05:43:23.757Z,16.77
2023-01-28T05:46:15.314Z,16.77
2023-01-28T05:49:08.877Z,17.00
2023-01-28T05:52:01.899Z,23.50
2023-01-28T05:54:38.174Z,15.05
2023-01-28T05:57:13.116Z,13.55
2023-01-28T05:59:46.843Z,14.45
2023-01-28T06:02:21.061Z,19.67
2023-01-28T06:04:56.408Z,17.87
2023-01-28T06:07:30.216Z,17.60
2023-01-28T06:12:37.233Z,18.42
2023-01-28T06:15:29.266Z,21.65
2023-01-28T06:18:07.672Z,19.15
2023-01-28T06:20:42.920Z,14.95
2023-01-28T06:23:17.073Z,13.98
2023-01-28T06:30:58.908Z,13.53
2023-01-28T06:33:32.765Z,13.18
2023-01-28T06:36:08.323Z,12.73
2023-01-28T06:38:42.241Z,13.03
2023-01-28T06:41:15.971Z,11.83
2023-01-28T06:43:49.986Z,13.68
2023-01-28T06:46:25.099Z,13.62
2023-01-28T06:48:59.047Z,14.55
2023-01-28T06:51:34.739Z,15.23
2023-01-28T06:54:09.428Z,13.60
2023-01-28T06:56:43.470Z,15.88
2023-01-28T06:59:18.078Z,15.68
2023-01-28T07:01:52.676Z,16.50
2023-01-28T07:06:59.987Z,19.62
2023-01-28T07:09:34.165Z,13.30
2023-01-28T07:12:08.703Z,22.52
2023-01-28T07:14:44.046Z,15.20
2023-01-28T07:17:18.649Z,15.23
2023-01-28T07:19:53.472Z,15.08
2023-01-28T07:22:27.918Z,11.68
2023-01-28T07:25:02.626Z,12.70
2023-01-28T07:27:36.656Z,11.75
2023-01-28T07:30:13.408Z,12.07
2023-01-28T07:32:47.613Z,15.28
2023-01-28T07:35:21.485Z,13.65
2023-01-28T07:38:02.876Z,13.15
2023-01-28T07:40:36.730Z,13.28
2023-01-28T07:43:11.279Z,13.25
2023-01-28T07:45:48.567Z,11.22
2023-01-28T07:48:22.551Z,11.75
2023-01-28T07:50:59.528Z,13.28
2023-01-28T07:53:34.075Z,14.03
2023-01-28T07:56:08.291Z,14.18
2023-01-28T07:58:42.275Z,12.93
2023-01-28T08:01:45.209Z,15.93
2023-01-28T08:04:19.483Z,13.70
2023-01-28T08:06:54.097Z,17.25
2023-01-28T08:09:28.058Z,17.23
2023-01-28T12:12:05.402Z,25.82
2023-01-28T12:15:12.010Z,23.47
2023-01-28T12:17:55.350Z,18.00
2023-01-28T12:20:49.713Z,16.00
2023-01-28T12:24:11.548Z,20.57
2023-01-28T12:27:17.893Z,23.12
2023-01-28T12:30:17.107Z,20.65
2023-01-28T12:33:06.673Z,21.48
2023-01-28T12:36:14.146Z,23.12
2023-01-28T12:39:06.499Z,19.02
2023-01-28T12:41:46.626Z,25.10
2023-01-28T12:44:29.990Z,18.48
2023-01-28T12:47:10.423Z,21.25
2023-01-28T12:49:53.847Z,23.87
2023-01-28T12:52:37.490Z,20.08
2023-01-28T12:55:45.581Z,23.62
2023-01-28T12:58:25.438Z,21.80
2023-01-28T13:01:02.798Z,24.52
2023-01-28T13:04:07.500Z,23.15
2023-01-28T13:06:53.746Z,21.15
2023-01-28T13:09:28.401Z,23.45
2023-01-28T13:12:02.243Z,22.30
2023-01-28T13:14:36.553Z,26.50
2023-01-28T13:17:14.999Z,30.72
2023-01-28T13:19:48.257Z,27.35
2023-01-28T13:22:37.155Z,30.23
2023-01-28T13:25:27.440Z,23.75
2023-01-28T13:28:06.986Z,22.40
2023-01-28T13:30:50.086Z,21.07
2023-01-28T13:33:36.531Z,25.10
2023-01-28T13:36:47.330Z,22.80
2023-01-28T13:39:23.715Z,24.82
2023-01-28T13:42:17.369Z,21.20
2023-01-28T13:44:50.538Z,21.37
2023-01-28T13:47:35.714Z,20.70
2023-01-28T13:50:16.343Z,21.30
2023-01-28T13:53:16.359Z,25.08
2023-01-28T13:55:50.133Z,21.12
2023-01-28T13:58:49.312Z,26.27
2023-01-28T14:01:57.009Z,20.72
2023-01-28T14:04:59.881Z,24.90
2023-01-28T14:07:52.430Z,24.82
2023-01-28T14:10:38.720Z,22.20
2023-01-28T14:13:20.031Z,21.75
2023-01-28T14:16:12.892Z,31.95
2023-01-28T14:18:47.097Z,24.45
2023-01-28T14:21:22.368Z,20.35
2023-01-28T14:23:57.935Z,21.90
2023-01-28T14:27:00.442Z,31.42
2023-01-28T14:29:44.400Z,37.17
2023-01-28T14:32:32.687Z,37.93
2023-01-28T14:35:10.845Z,35.50
2023-01-28T14:37:44.012Z,37.58
2023-01-28T14:40:18.983Z,39.77
2023-01-28T14:42:56.270Z,37.05
2023-01-28T14:46:07.695Z,38.00
2023-01-28T14:48:54.307Z,35.58
2023-01-28T14:52:00.306Z,38.42
2023-01-28T14:55:02.011Z,38.45
2023-01-28T14:57:50.154Z,51.02
2023-01-28T15:00:27.713Z,41.53
2023-01-28T15:03:01.853Z,53.50
2023-01-28T15:05:35.297Z,43.90
2023-01-28T15:08:08.854Z,46.65
2023-01-28T15:10:46.251Z,46.88
2023-01-28T15:13:32.231Z,52.23
2023-01-28T18:45:23.401Z,22.10
2023-01-28T18:47:56.801Z,22.27
2023-01-28T18:50:30.583Z,21.20
2023-01-28T18:53:04.627Z,30.55
2023-01-28T18:58:10.324Z,30.82
2023-01-28T19:00:44.166Z,42.25
2023-01-28T19:03:17.091Z,25.57
2023-01-28T19:05:49.939Z,25.40
2023-01-28T19:08:23.733Z,31.57
2023-01-28T19:10:58.573Z,22.70
2023-01-28T19:13:31.910Z,30.80
2023-01-28T19:16:06.469Z,27.30
2023-01-28T19:18:39.753Z,23.75
2023-01-28T19:21:12.704Z,26.97
2023-01-28T19:23:50.184Z,27.27
2023-01-28T19:26:22.170Z,23.15
2023-01-28T19:28:56.517Z,22.52
2023-01-28T19:31:30.197Z,25.55
2023-01-28T19:34:04.044Z,21.30
2023-01-28T19:39:10.224Z,18.82
2023-01-28T19:41:43.337Z,20.32
2023-01-28T19:44:16.271Z,19.10
2023-01-28T19:46:52.912Z,18.00
2023-01-28T19:49:27.653Z,14.85
2023-01-28T19:52:00.928Z,19.42
2023-01-28T19:54:34.216Z,18.55
2023-01-28T19:57:07.891Z,15.58
2023-01-28T19:59:41.551Z,16.67
2023-01-28T20:02:14.470Z,16.40
2023-01-28T20:05:00.046Z,15.17
2023-01-28T20:07:22.704Z,15.18
2023-01-28T20:09:56.383Z,15.20
2023-01-28T20:12:30.019Z,15.18
2023-01-28T20:15:03.223Z,15.28
2023-01-28T20:17:36.888Z,13.53
2023-01-28T20:20:11.608Z,13.78
2023-01-28T20:22:45.276Z,12.45
2023-01-28T20:25:19.528Z,13.30
2023-01-28T20:27:52.688Z,13.70
2023-01-28T20:30:27.273Z,12.58
2023-01-28T20:33:00.664Z,13.43
2023-01-28T20:35:33.728Z,15.13
2023-01-28T20:38:07.698Z,17.30
2023-01-28T20:40:42.549Z,16.95
2023-01-28T20:43:16.028Z,15.30
2023-01-28T20:45:49.086Z,12.60
2023-01-28T20:48:22.922Z,13.88
2023-01-28T20:50:56.440Z,14.83
2023-01-28T20:53:29.714Z,15.43
2023-01-28T20:56:03.108Z,14.25
2023-01-28T20:58:36.058Z,16.27
2023-01-28T21:01:09.129Z,13.80
2023-01-28T21:03:42.275Z,13.45
2023-01-28T21:06:15.827Z,16.17
2023-01-28T21:08:49.544Z,15.38
2023-01-28T21:11:24.232Z,17.25
2023-01-28T21:13:57.907Z,19.37
2023-01-28T21:16:31.199Z,19.50
2023-01-28T21:19:04.179Z,16.27
2023-01-28T21:21:38.112Z,15.45
2023-01-28T21:24:12.249Z,14.78
2023-01-28T21:26:45.267Z,13.95
2023-01-28T21:29:19.149Z,11.97
2023-01-28T21:31:52.282Z,13.40
2023-01-28T21:34:26.295Z,14.30
2023-01-28T21:36:59.339Z,14.03
2023-01-28T21:39:33.894Z,15.20
2023-01-28T21:42:07.068Z,17.00
2023-01-28T21:44:40.074Z,19.23
2023-01-28T21:47:14.045Z,18.75
2023-01-28T21:49:47.993Z,19.95
2023-01-28T21:52:22.503Z,21.12
2023-01-28T21:54:55.538Z,19.37
2023-01-28T21:57:29.189Z,19.07
2023-01-28T22:00:02.527Z,20.40
2023-01-28T22:02:37.784Z,24.23
2023-01-28T22:05:11.242Z,29.52
2023-01-28T22:07:44.281Z,23.87
2023-01-28T22:10:19.055Z,19.00
2023-01-28T22:12:53.947Z,16.45
2023-01-28T22:15:27.491Z,17.12
2023-01-28T22:18:01.221Z,16.95
2023-01-28T22:20:35.582Z,15.43
2023-01-28T22:23:08.803Z,15.37
2023-01-28T22:25:42.709Z,13.25
2023-01-28T22:28:16.126Z,14.80
2023-01-28T22:30:49.705Z,14.60
2023-01-28T22:33:22.787Z,13.20
2023-01-28T22:35:56.012Z,13.20
2023-01-28T22:38:29.156Z,14.57
2023-01-28T22:41:14.907Z,15.60
2023-01-28T22:43:49.137Z,14.83
2023-01-28T22:46:25.713Z,16.30
2023-01-28T22:48:58.852Z,16.60
2023-01-28T22:51:35.400Z,18.80
2023-01-28T22:54:09.303Z,17.27
2023-01-28T22:56:42.393Z,16.17
2023-01-28T22:59:16.017Z,15.90
2023-01-28T23:01:49.264Z,15.30
2023-01-28T23:04:22.307Z,14.65
2023-01-28T23:06:55.262Z,13.68
2023-01-28T23:09:28.500Z,13.65
2023-01-28T23:12:01.540Z,13.65
2023-01-28T23:14:52.970Z,12.98
2023-01-28T23:17:44.029Z,13.43
2023-01-28T23:20:35.681Z,13.95
2023-01-28T23:23:29.790Z,14.65
2023-01-28T23:26:02.882Z,15.80
2023-01-28T23:28:35.843Z,14.07
2023-01-28T23:31:09.015Z,15.32
2023-01-28T23:33:42.187Z,15.80
2023-01-28T23:36:15.406Z,14.87
2023-01-28T23:38:48.489Z,14.70
2023-01-28T23:41:21.618Z,15.93
2023-01-28T23:43:54.597Z,17.52
2023-01-28T23:46:38.901Z,16.15
2023-01-28T23:49:03.335Z,16.07
2023-01-28T23:51:36.814Z,17.37
2023-01-28T23:54:09.909Z,15.68
2023-01-28T23:56:42.840Z,18.02
2023-01-28T23:59:15.795Z,15.78
